Time;durP1;ratioP1;P1;durP2;ratioP2;P2;SDS_P1;SDS_P2;PMS_P1;PMS_P2;Temp;Humidity;BMP_temperature;BMP_pressure;BME280_temperature;BME280_humidity;BME280_pressure;Samples;Min_cycle;Max_cycle;Signal;HPM_P1;HPM_P2
2021/08/14 03:30:23;;;;;;;9.97;4.93;;;18.60;99.70;;;;;;5030385;28;20174;-66
2021/08/14 03:32:52;;;;;;;11.77;4.07;;;18.70;99.70;;;;;;5030090;28;20198;-66
2021/08/14 03:35:18;;;;;;;9.37;4.50;;;18.70;99.70;;;;;;5029616;28;20827;-66
2021/08/14 03:37:45;;;;;;;8.57;4.17;;;18.70;99.70;;;;;;5030324;28;20441;-66
2021/08/14 03:40:13;;;;;;;14.07;4.80;;;18.70;99.70;;;;;;5030112;28;20485;-66
2021/08/14 03:42:40;;;;;;;11.07;4.60;;;18.80;99.70;;;;;;5030023;28;20448;-66
2021/08/14 03:45:07;;;;;;;10.60;5.10;;;18.80;99.70;;;;;;5029115;28;20444;-66
2021/08/14 03:47:36;;;;;;;12.60;5.40;;;18.80;99.70;;;;;;5030030;28;20448;-66
2021/08/14 03:50:03;;;;;;;11.03;4.97;;;18.70;99.70;;;;;;5029996;28;20444;-66
2021/08/14 03:52:30;;;;;;;12.10;6.20;;;18.70;99.70;;;;;;5029921;28;20440;-66
2021/08/14 03:54:56;;;;;;;12.40;4.90;;;18.70;99.70;;;;;;5029048;28;20555;-66
2021/08/14 03:57:25;;;;;;;14.20;6.40;;;18.70;99.70;;;;;;5030124;28;20445;-65
2021/08/14 03:59:52;;;;;;;10.97;5.13;;;18.70;99.70;;;;;;5027589;28;20495;-66
2021/08/14 04:02:18;;;;;;;11.13;4.70;;;18.70;99.70;;;;;;5029937;28;20763;-66
2021/08/14 04:04:46;;;;;;;9.63;4.60;;;18.70;99.70;;;;;;5028953;28;20522;-66
2021/08/14 04:07:13;;;;;;;11.97;5.03;;;18.70;99.70;;;;;;5029768;28;20441;-66
2021/08/14 04:09:40;;;;;;;13.83;5.37;;;18.70;99.70;;;;;;5029698;28;20436;-66
2021/08/14 04:12:07;;;;;;;9.07;4.67;;;18.70;99.70;;;;;;5029871;28;20444;-66
2021/08/14 04:14:34;;;;;;;8.20;4.57;;;18.60;99.70;;;;;;5028758;28;21026;-66
2021/08/14 04:17:01;;;;;;;8.40;4.80;;;18.60;99.70;;;;;;5029325;28;20453;-65
2021/08/14 04:19:27;;;;;;;8.97;5.00;;;18.50;99.70;;;;;;5029719;28;20487;-66
2021/08/14 04:21:55;;;;;;;11.67;4.73;;;18.50;99.70;;;;;;5029746;28;20451;-66
2021/08/14 04:24:22;;;;;;;11.80;4.93;;;18.50;99.70;;;;;;5028704;28;20473;-66
2021/08/14 04:26:49;;;;;;;10.00;5.03;;;18.50;99.70;;;;;;5029599;28;20504;-66
2021/08/14 04:29:16;;;;;;;12.40;5.37;;;18.50;99.70;;;;;;5029430;28;20451;-66
2021/08/14 04:31:43;;;;;;;10.80;4.70;;;18.40;99.70;;;;;;5029585;28;20550;-65
2021/08/14 04:34:09;;;;;;;10.40;4.90;;;18.40;99.70;;;;;;5028458;28;20495;-66
2021/08/14 04:36:36;;;;;;;10.53;4.60;;;18.40;99.70;;;;;;5029673;28;20448;-66
2021/08/14 04:39:04;;;;;;;11.83;5.43;;;18.40;99.70;;;;;;5029213;28;20809;-66
2021/08/14 04:41:31;;;;;;;10.73;5.10;;;18.40;99.70;;;;;;5029469;28;20456;-66
2021/08/14 04:43:57;;;;;;;11.90;4.80;;;18.50;99.70;;;;;;5028914;28;20465;-66
2021/08/14 04:46:24;;;;;;;12.10;5.57;;;18.50;99.70;;;;;;5028943;28;20456;-66
2021/08/14 04:48:51;;;;;;;12.40;4.90;;;18.50;99.70;;;;;;5029340;28;20441;-66
2021/08/14 04:51:17;;;;;;;9.07;4.13;;;18.50;99.70;;;;;;5029202;28;20955;-66
2021/08/14 04:53:44;;;;;;;10.60;5.40;;;18.60;99.70;;;;;;5028978;28;21002;-66
2021/08/14 04:56:12;;;;;;;13.57;5.97;;;18.60;99.70;;;;;;5028567;28;20532;-66
2021/08/14 04:58:39;;;;;;;10.33;4.80;;;18.50;99.70;;;;;;5029074;28;20460;-66
2021/08/14 05:01:05;;;;;;;10.83;4.90;;;18.60;99.70;;;;;;5027043;28;20488;-66
2021/08/14 05:03:32;;;;;;;9.20;4.90;;;18.60;99.70;;;;;;5029242;28;20526;-66
2021/08/14 05:05:59;;;;;;;12.57;4.87;;;18.60;99.70;;;;;;5028491;28;20453;-66
2021/08/14 05:08:25;;;;;;;11.83;4.70;;;18.70;99.70;;;;;;5029285;28;20698;-66
2021/08/14 05:10:52;;;;;;;10.27;5.13;;;18.60;99.70;;;;;;5029090;28;20852;-66
2021/08/14 05:13:20;;;;;;;11.50;6.03;;;18.80;99.70;;;;;;5028813;28;20495;-66
2021/08/14 05:15:47;;;;;;;11.57;4.97;;;18.90;99.70;;;;;;5028262;28;20455;-66
2021/08/14 05:18:16;;;;;;;8.60;4.43;;;18.90;99.70;;;;;;5029159;28;20441;-66
2021/08/14 05:20:43;;;;;;;11.63;5.10;;;19.00;99.70;;;;;;5028811;28;20484;-66
2021/08/14 05:23:10;;;;;;;8.90;4.83;;;19.00;99.70;;;;;;5028913;28;20530;-66
2021/08/14 05:25:37;;;;;;;11.90;4.97;;;19.10;99.70;;;;;;5028247;28;20448;-66
2021/08/14 05:28:04;;;;;;;9.03;4.77;;;19.10;99.70;;;;;;5028855;28;20445;-66
2021/08/14 05:30:32;;;;;;;10.80;4.93;;;19.20;99.70;;;;;;5029007;28;20455;-66
2021/08/14 05:32:58;;;;;;;9.37;5.10;;;19.30;99.70;;;;;;5028541;28;20480;-66
2021/08/14 05:35:26;;;;;;;11.93;5.13;;;19.30;99.70;;;;;;5103893;22;20487;-69
2021/08/14 05:37:52;;;;;;;11.30;5.30;;;19.50;99.70;;;;;;5049074;28;20815;-68
2021/08/14 05:40:19;;;;;;;13.30;5.10;;;19.60;99.70;;;;;;5050698;28;20475;-68
2021/08/14 05:42:46;;;;;;;12.90;5.47;;;19.70;99.70;;;;;;5051332;28;20456;-68
2021/08/14 05:45:13;;;;;;;9.27;4.67;;;19.80;99.70;;;;;;5051730;28;20893;-68
2021/08/14 05:47:41;;;;;;;8.37;4.37;;;19.90;99.70;;;;;;5052891;28;20444;-68
2021/08/14 05:50:08;;;;;;;13.83;5.20;;;20.00;99.70;;;;;;5052576;28;20442;-67
2021/08/14 05:52:35;;;;;;;11.43;5.60;;;20.00;99.70;;;;;;5050873;28;20946;-69
2021/08/14 05:55:01;;;;;;;11.83;4.57;;;20.20;99.70;;;;;;5050800;28;20471;-69
2021/08/14 05:57:28;;;;;;;11.37;5.13;;;20.30;99.70;;;;;;5050829;28;20435;-68
2021/08/14 05:59:55;;;;;;;11.97;5.07;;;20.40;99.70;;;;;;5051161;28;20812;-68
2021/08/14 06:02:21;;;;;;;10.40;4.50;;;20.50;99.70;;;;;;5051755;28;20455;-68
2021/08/14 06:04:49;;;;;;;11.23;5.00;;;20.50;99.70;;;;;;5051975;28;20990;-68
2021/08/14 06:07:16;;;;;;;9.10;4.37;;;20.50;99.70;;;;;;5051404;28;20462;-69
2021/08/14 06:09:43;;;;;;;11.90;5.03;;;20.50;99.70;;;;;;5039480;28;20452;-68
2021/08/14 06:12:10;;;;;;;11.63;5.23;;;20.50;99.70;;;;;;5051765;28;20455;-68
2021/08/14 06:14:37;;;;;;;11.90;4.80;;;20.60;99.70;;;;;;5052309;28;20470;-68
2021/08/14 06:17:04;;;;;;;8.80;4.80;;;20.60;99.70;;;;;;5048205;28;20470;-69
2021/08/14 06:19:31;;;;;;;10.17;4.87;;;20.70;99.70;;;;;;5052246;28;20462;-68
2021/08/14 06:22:00;;;;;;;12.13;4.43;;;20.80;99.70;;;;;;5052153;28;20534;-68
2021/08/14 06:24:27;;;;;;;12.20;5.07;;;21.00;99.70;;;;;;5051582;28;20471;-68
2021/08/14 06:26:54;;;;;;;9.23;5.30;;;21.20;99.70;;;;;;5051843;28;20448;-68
2021/08/14 06:29:21;;;;;;;9.40;4.20;;;21.20;99.70;;;;;;5051878;28;20474;-68
2021/08/14 06:31:47;;;;;;;12.97;5.57;;;21.50;99.70;;;;;;5051943;28;20491;-69
2021/08/14 06:34:14;;;;;;;8.77;4.77;;;21.90;99.70;;;;;;5044657;28;20483;-69
2021/08/14 06:36:41;;;;;;;11.43;5.57;;;22.40;99.70;;;;;;5031943;28;20955;-67
2021/08/14 06:39:09;;;;;;;8.57;4.70;;;23.20;99.70;;;;;;5031368;28;20448;-67
2021/08/14 06:41:36;;;;;;;8.80;4.83;;;23.70;99.70;;;;;;5031620;28;20221;-67
2021/08/14 06:44:03;;;;;;;8.47;4.67;;;24.10;99.70;;;;;;5046291;28;20217;-67
2021/08/14 06:46:30;;;;;;;8.70;4.75;;;24.20;99.70;;;;;;5050339;28;20204;-67
2021/08/14 06:48:56;;;;;;;7.45;4.72;;;24.30;99.70;;;;;;5051775;28;20205;-67
2021/08/14 06:51:23;;;;;;;10.88;4.63;;;24.60;99.70;;;;;;5051328;28;20213;-67
2021/08/14 06:53:50;;;;;;;7.95;4.38;;;24.80;99.70;;;;;;5051478;28;20832;-67
2021/08/14 06:56:18;;;;;;;7.47;4.68;;;25.10;99.70;;;;;;5050854;28;20280;-67
2021/08/14 06:58:44;;;;;;;8.23;4.75;;;25.50;99.70;;;;;;5038180;28;20204;-67
2021/08/14 07:01:11;;;;;;;8.35;4.78;;;25.70;99.70;;;;;;5030353;28;20221;-68
2021/08/14 07:03:38;;;;;;;8.07;4.65;;;25.90;99.70;;;;;;5031507;28;20212;-68
2021/08/14 07:06:04;;;;;;;7.53;4.53;;;26.30;99.70;;;;;;5030992;28;20219;-68
2021/08/14 07:08:31;;;;;;;8.50;4.80;;;26.70;99.70;;;;;;5031338;28;20205;-67
2021/08/14 07:10:58;;;;;;;7.15;4.15;;;26.40;99.70;;;;;;5031439;28;20205;-68
2021/08/14 07:13:26;;;;;;;6.70;4.45;;;26.70;99.70;;;;;;5030955;28;20202;-69
2021/08/14 07:15:53;;;;;;;10.00;4.85;;;27.20;99.70;;;;;;5036031;28;20205;-69
2021/08/14 07:18:19;;;;;;;8.15;4.78;;;27.70;99.70;;;;;;5050762;28;20196;-68
2021/08/14 07:20:46;;;;;;;6.68;4.35;;;27.70;99.70;;;;;;5051210;28;20232;-68
2021/08/14 07:23:13;;;;;;;7.78;4.50;;;27.80;99.70;;;;;;5040029;28;20201;-68
2021/08/14 07:25:40;;;;;;;8.70;4.53;;;27.60;99.70;;;;;;5032720;28;20271;-68
2021/08/14 07:28:07;;;;;;;7.50;4.60;;;27.40;99.70;;;;;;5043264;28;20201;-68
2021/08/14 07:30:35;;;;;;;9.57;5.13;;;26.90;99.70;;;;;;5051036;28;20553;-68
2021/08/14 07:33:01;;;;;;;8.07;4.55;;;26.20;99.70;;;;;;5050607;28;20208;-69
2021/08/14 07:35:28;;;;;;;8.20;4.68;;;26.10;99.70;;;;;;5034883;28;20229;-68
2021/08/14 07:37:55;;;;;;;7.40;4.30;;;26.40;99.70;;;;;;5030194;28;20205;-68
2021/08/14 07:40:23;;;;;;;8.13;4.50;;;26.40;99.70;;;;;;5030532;28;20251;-68
2021/08/14 07:42:50;;;;;;;10.47;5.27;;;26.00;99.70;;;;;;5030613;28;20758;-67
2021/08/14 07:45:18;;;;;;;9.17;4.80;;;26.20;99.70;;;;;;5046146;28;20726;-68
2021/08/14 07:47:48;;;;;;;7.93;4.53;;;25.90;99.70;;;;;;5049525;28;20251;-67
2021/08/14 07:50:19;;;;;;;7.13;4.23;;;25.80;99.70;;;;;;5050223;28;20276;-68
2021/08/14 07:52:45;;;;;;;7.63;4.13;;;25.80;99.70;;;;;;5050377;28;20228;-68
2021/08/14 07:55:13;;;;;;;8.20;4.33;;;25.60;99.70;;;;;;5035567;28;20222;-68
2021/08/14 07:57:40;;;;;;;7.93;4.23;;;25.40;99.70;;;;;;5029830;28;20994;-68
2021/08/14 08:00:08;;;;;;;8.73;4.30;;;25.00;99.70;;;;;;5029451;28;20495;-68
2021/08/14 08:02:35;;;;;;;8.20;4.33;;;24.90;99.70;;;;;;5030238;28;20456;-68
2021/08/14 08:05:05;;;;;;;9.83;5.20;;;25.00;99.70;;;;;;5029838;28;20844;-68
2021/08/14 08:07:32;;;;;;;8.60;4.43;;;25.20;99.70;;;;;;5031445;28;20452;-68
2021/08/14 08:10:01;;;;;;;9.73;4.30;;;25.10;99.70;;;;;;5030182;28;20444;-68
2021/08/14 08:12:28;;;;;;;8.80;4.20;;;24.90;99.70;;;;;;5030190;28;20547;-67
2021/08/14 08:14:55;;;;;;;9.03;4.20;;;24.90;99.70;;;;;;5029817;28;20487;-67
2021/08/14 08:17:22;;;;;;;7.47;3.90;;;25.00;99.70;;;;;;5046935;28;20451;-68
2021/08/14 08:19:48;;;;;;;8.60;3.83;;;24.80;99.70;;;;;;5050088;28;20451;-68
2021/08/14 08:22:16;;;;;;;7.07;4.07;;;24.90;99.70;;;;;;5041391;28;20998;-68
2021/08/14 08:24:43;;;;;;;9.03;4.13;;;24.90;99.70;;;;;;5029623;28;20464;-67
2021/08/14 08:27:10;;;;;;;9.03;4.10;;;24.60;99.70;;;;;;5032463;28;20435;-69
2021/08/14 08:29:38;;;;;;;7.63;3.90;;;24.80;99.70;;;;;;5029925;28;20448;-68
2021/08/14 08:32:06;;;;;;;11.40;4.50;;;24.90;99.70;;;;;;5029983;28;21010;-68
2021/08/14 08:34:33;;;;;;;9.33;4.50;;;25.00;99.70;;;;;;5042331;28;20486;-68
2021/08/14 08:37:00;;;;;;;9.90;4.43;;;24.90;99.70;;;;;;5049292;28;20439;-68
2021/08/14 08:39:28;;;;;;;15.23;4.57;;;24.80;99.70;;;;;;5049531;28;20443;-68
2021/08/14 08:41:56;;;;;;;8.83;4.43;;;24.80;99.70;;;;;;5049524;28;20479;-68
2021/08/14 08:44:23;;;;;;;10.13;4.70;;;25.00;99.70;;;;;;5049408;28;20517;-67
2021/08/14 08:46:50;;;;;;;9.10;4.93;;;25.00;99.70;;;;;;5049899;28;20838;-67
2021/08/14 08:49:19;;;;;;;12.30;4.93;;;25.10;99.70;;;;;;5049661;28;20450;-68
2021/08/14 08:51:46;;;;;;;9.43;4.57;;;25.10;99.70;;;;;;5032031;28;20550;-67
2021/08/14 08:54:14;;;;;;;10.67;4.93;;;25.10;99.70;;;;;;5029156;28;20861;-67
2021/08/14 08:56:43;;;;;;;11.67;5.03;;;24.90;99.70;;;;;;5029798;28;20495;-67
2021/08/14 08:59:11;;;;;;;9.40;4.80;;;25.00;99.70;;;;;;5040371;28;20454;-67
2021/08/14 09:01:38;;;;;;;6.97;4.10;;;24.80;99.70;;;;;;5048996;28;20511;-67
2021/08/14 09:04:20;;;;;;;9.10;4.40;;;24.90;99.70;;;;;;5049182;28;20474;-67
2021/08/14 09:06:47;;;;;;;9.17;3.90;;;25.00;99.70;;;;;;5049866;28;20493;-67
2021/08/14 09:09:14;;;;;;;8.83;4.33;;;25.10;99.70;;;;;;5050383;28;20439;-67
2021/08/14 09:11:53;;;;;;;7.87;4.20;;;25.30;99.70;;;;;;5053646;28;20475;-68
2021/08/14 09:14:20;;;;;;;10.30;4.70;;;25.20;99.70;;;;;;5032854;28;20466;-68
2021/08/14 09:16:59;;;;;;;7.63;4.03;;;25.30;99.70;;;;;;5045813;28;20999;-67
2021/08/14 09:19:27;;;;;;;11.17;4.57;;;25.40;99.70;;;;;;5035988;28;20455;-67
2021/08/14 09:21:54;;;;;;;6.97;3.90;;;25.60;99.70;;;;;;5033542;28;20502;-68
2021/08/14 09:24:31;;;;;;;8.10;4.17;;;25.80;99.70;;;;;;5033106;28;20526;-67
2021/08/14 09:27:03;;;;;;;8.57;3.70;;;25.80;99.70;;;;;;5033383;28;20486;-67
2021/08/14 09:29:32;;;;;;;8.73;4.20;;;25.70;99.70;;;;;;5042797;28;20937;-67
2021/08/14 09:32:00;;;;;;;8.30;4.20;;;25.60;99.70;;;;;;5053174;28;20449;-66
2021/08/14 09:34:28;;;;;;;7.03;3.50;;;25.80;99.70;;;;;;5052520;28;20479;-67
2021/08/14 09:37:02;;;;;;;8.50;3.90;;;26.20;99.70;;;;;;5053044;28;20443;-67
2021/08/14 09:39:30;;;;;;;6.80;3.57;;;26.40;99.70;;;;;;5052481;28;20447;-68
2021/08/14 09:42:08;;;;;;;9.13;4.17;;;26.40;99.70;;;;;;5052683;28;20481;-66
2021/08/14 09:44:36;;;;;;;8.37;4.50;;;26.30;99.70;;;;;;5052181;28;20463;-68
2021/08/14 09:47:08;;;;;;;6.63;3.63;;;26.30;99.70;;;;;;5043848;28;20871;-68
2021/08/14 09:49:49;;;;;;;8.40;3.87;;;26.70;99.70;;;;;;5033135;28;20677;-68
2021/08/14 09:52:20;;;;;;;7.78;4.10;;;26.80;99.70;;;;;;5032799;28;20680;-68
2021/08/14 09:54:46;;;;;;;7.07;3.60;;;27.20;99.70;;;;;;5034935;28;20251;-67
2021/08/14 09:57:15;;;;;;;6.47;3.90;;;28.30;99.40;;;;;;5033281;28;20605;-68
2021/08/14 09:59:44;;;;;;;6.57;3.75;;;28.90;98.50;;;;;;5034175;28;20251;-68
2021/08/14 10:02:17;;;;;;;7.63;4.22;;;29.50;95.70;;;;;;5032836;28;20604;-68
2021/08/14 10:04:45;;;;;;;6.18;3.70;;;29.80;95.50;;;;;;5032165;28;20249;-69
2021/08/14 10:07:14;;;;;;;5.28;3.30;;;29.80;95.00;;;;;;5032595;28;20566;-68
2021/08/14 10:09:41;;;;;;;7.40;3.80;;;29.80;94.20;;;;;;5032258;28;20260;-68
2021/08/14 10:12:08;;;;;;;7.32;3.78;;;29.60;95.10;;;;;;5032690;28;20209;-68
2021/08/14 10:14:38;;;;;;;5.45;3.65;;;30.00;92.30;;;;;;5032166;28;20221;-68
2021/08/14 10:17:06;;;;;;;7.93;3.88;;;30.20;91.70;;;;;;5034232;28;20220;-69
2021/08/14 10:19:33;;;;;;;6.60;3.83;;;29.70;94.70;;;;;;5052163;28;20300;-68
2021/08/14 10:22:00;;;;;;;9.02;4.78;;;29.40;94.50;;;;;;5051847;28;20609;-68
2021/08/14 10:24:34;;;;;;;6.80;3.83;;;29.00;96.00;;;;;;5038786;28;20225;-68
2021/08/14 10:27:04;;;;;;;6.87;4.00;;;28.60;97.30;;;;;;5036569;28;20193;-68
2021/08/14 10:29:51;;;;;;;6.50;3.73;;;28.20;99.00;;;;;;5051970;28;20208;-68
2021/08/14 10:32:46;;;;;;;7.70;4.03;;;27.90;99.70;;;;;;5051493;28;20292;-67
2021/08/14 10:35:36;;;;;;;7.03;3.50;;;28.10;99.70;;;;;;5026518;28;20628;-67
2021/08/14 10:38:04;;;;;;;7.40;3.90;;;27.80;99.70;;;;;;5032080;28;20223;-68
2021/08/14 10:40:59;;;;;;;7.30;3.70;;;27.70;99.00;;;;;;5031742;28;20283;-68
2021/08/14 10:43:58;;;;;;;7.53;4.03;;;27.80;97.90;;;;;;5050319;28;20197;-67
2021/08/14 10:46:40;;;;;;;8.10;3.63;;;27.80;99.70;;;;;;5030398;28;20735;-67
2021/08/14 10:49:09;;;;;;;8.83;3.77;;;27.50;99.70;;;;;;5031243;28;20451;-68
2021/08/14 10:52:11;;;;;;;7.40;4.20;;;27.60;99.70;;;;;;5031520;28;20448;-68
2021/08/14 10:55:13;;;;;;;8.07;4.10;;;27.60;99.70;;;;;;5034770;28;20585;-66
2021/08/14 10:57:42;;;;;;;8.87;4.23;;;27.30;99.70;;;;;;5051097;28;20443;-67
2021/08/14 11:00:16;;;;;;;7.43;3.53;;;27.30;99.70;;;;;;5051087;28;20447;-66
2021/08/14 11:03:07;;;;;;;7.90;4.23;;;27.50;99.70;;;;;;5040193;28;20880;-66
2021/08/14 11:05:34;;;;;;;6.40;3.60;;;27.10;99.70;;;;;;5031030;28;20882;-66
2021/08/14 11:08:03;;;;;;;7.03;4.00;;;27.30;99.70;;;;;;5041712;28;20953;-66
2021/08/14 11:10:32;;;;;;;7.70;4.03;;;27.40;99.70;;;;;;5051084;28;20443;-67
2021/08/14 11:12:59;;;;;;;7.87;4.10;;;27.70;99.50;;;;;;5050899;28;20439;-67
2021/08/14 11:15:28;;;;;;;6.07;3.50;;;27.70;99.60;;;;;;5050793;28;20990;-67
2021/08/14 11:17:57;;;;;;;8.03;4.00;;;27.50;99.70;;;;;;5051113;28;20447;-67
2021/08/14 11:20:39;;;;;;;6.50;3.90;;;27.70;99.10;;;;;;5050889;28;20443;-66
2021/08/14 11:23:25;;;;;;;7.37;4.20;;;27.80;98.70;;;;;;5048818;28;21073;-67
2021/08/14 11:25:52;;;;;;;8.47;3.60;;;27.70;99.20;;;;;;5050574;28;20463;-68
2021/08/14 11:28:21;;;;;;;7.90;4.17;;;27.50;99.70;;;;;;5051070;28;20823;-67
2021/08/14 11:30:50;;;;;;;7.47;3.70;;;27.60;99.70;;;;;;5050520;28;20439;-67
2021/08/14 11:33:23;;;;;;;8.70;4.30;;;27.70;99.70;;;;;;5050279;28;20806;-66
2021/08/14 11:36:05;;;;;;;7.57;4.03;;;27.70;99.30;;;;;;5050122;28;20470;-67
2021/08/14 11:38:36;;;;;;;8.40;4.47;;;27.40;99.70;;;;;;5034286;28;20443;-67
2021/08/14 11:41:11;;;;;;;9.90;4.20;;;27.50;99.70;;;;;;5030398;28;20936;-67
2021/08/14 11:43:39;;;;;;;8.47;4.57;;;27.20;99.70;;;;;;5030590;28;20432;-66
2021/08/14 11:46:07;;;;;;;7.10;4.13;;;27.30;99.70;;;;;;5030272;28;20460;-66
2021/08/14 11:48:41;;;;;;;7.50;4.10;;;27.50;99.70;;;;;;5029949;28;20452;-67
2021/08/14 11:51:18;;;;;;;8.67;4.30;;;27.20;99.70;;;;;;5030331;28;20454;-66
2021/08/14 11:53:44;;;;;;;6.57;3.70;;;27.40;99.70;;;;;;5030214;28;20447;-66
2021/08/14 11:56:12;;;;;;;7.17;3.80;;;27.60;99.70;;;;;;5030086;28;20963;-66
2021/08/14 11:58:40;;;;;;;8.10;3.80;;;27.60;99.70;;;;;;5030204;28;20452;-66
2021/08/14 12:01:07;;;;;;;9.20;4.63;;;27.70;99.70;;;;;;5030220;28;20444;-67
2021/08/14 12:03:34;;;;;;;7.40;3.90;;;27.80;99.70;;;;;;5029978;28;20482;-66
2021/08/14 12:06:07;;;;;;;8.83;4.40;;;27.80;99.70;;;;;;5042941;28;20914;-66
2021/08/14 12:08:36;;;;;;;7.70;4.27;;;27.60;99.30;;;;;;5049792;28;20519;-66
2021/08/14 12:11:06;;;;;;;8.43;4.20;;;27.80;98.50;;;;;;5050129;28;20450;-66
2021/08/14 12:13:33;;;;;;;6.70;3.97;;;27.90;98.60;;;;;;5050368;28;20442;-66
2021/08/14 12:16:14;;;;;;;8.90;4.23;;;28.20;99.20;;;;;;5048612;28;20504;-67
2021/08/14 12:18:43;;;;;;;7.50;4.07;;;28.10;99.70;;;;;;5049887;28;20470;-67
2021/08/14 12:21:11;;;;;;;9.60;4.37;;;28.10;99.70;;;;;;5049449;28;20449;-67
2021/08/14 12:23:41;;;;;;;7.80;4.03;;;28.10;99.10;;;;;;5030354;28;20487;-67
2021/08/14 12:26:10;;;;;;;10.37;4.20;;;28.20;98.20;;;;;;5029532;28;20447;-66
2021/08/14 12:28:39;;;;;;;8.67;4.50;;;28.30;98.40;;;;;;5030589;28;20441;-67
2021/08/14 12:31:17;;;;;;;7.90;3.93;;;28.10;99.20;;;;;;5030273;28;20455;-67
2021/08/14 12:33:49;;;;;;;7.23;3.50;;;28.10;99.00;;;;;;5030053;28;20440;-66
2021/08/14 12:36:30;;;;;;;7.13;3.90;;;28.00;99.70;;;;;;5029597;28;20451;-66
2021/08/14 12:38:58;;;;;;;8.50;4.00;;;28.00;99.20;;;;;;5029986;28;20487;-67
2021/08/14 12:41:25;;;;;;;6.67;4.00;;;28.00;99.30;;;;;;5029582;28;20460;-66
2021/08/14 12:43:53;;;;;;;7.70;4.00;;;27.90;99.70;;;;;;5030293;28;20460;-65
2021/08/14 12:46:21;;;;;;;9.00;4.13;;;27.70;99.70;;;;;;5033700;28;20459;-67
2021/08/14 12:49:17;;;;;;;10.00;4.07;;;27.80;99.70;;;;;;5034328;28;20455;-68
2021/08/14 12:51:43;;;;;;;9.27;4.20;;;27.90;98.80;;;;;;5034207;28;20490;-68
2021/08/14 12:54:12;;;;;;;9.13;4.57;;;27.90;99.70;;;;;;5033600;28;20467;-66
2021/08/14 12:56:39;;;;;;;7.67;4.60;;;28.00;99.70;;;;;;5034025;28;20452;-66
2021/08/14 12:59:06;;;;;;;11.20;4.40;;;27.80;99.70;;;;;;5039659;28;20823;-66
2021/08/14 13:01:33;;;;;;;8.50;3.90;;;28.00;99.60;;;;;;5047877;28;20516;-67
2021/08/14 13:04:02;;;;;;;6.20;3.80;;;27.80;99.70;;;;;;5052572;28;20908;-68
2021/08/14 13:06:28;;;;;;;8.07;4.27;;;27.70;99.00;;;;;;5050463;28;20491;-67
2021/08/14 13:08:55;;;;;;;8.60;3.80;;;27.90;99.70;;;;;;5050008;28;20443;-68
2021/08/14 13:11:24;;;;;;;7.60;4.27;;;27.80;99.70;;;;;;5053467;28;20443;-69
2021/08/14 13:13:50;;;;;;;9.93;3.97;;;27.70;99.70;;;;;;5048544;28;20463;-65
2021/08/14 13:16:17;;;;;;;6.67;3.87;;;27.70;99.70;;;;;;5052200;28;20455;-67
2021/08/14 13:18:44;;;;;;;7.80;3.90;;;27.70;99.70;;;;;;5052084;28;20454;-66
2021/08/14 13:21:11;;;;;;;7.20;4.33;;;27.70;99.70;;;;;;5046200;28;20519;-66
2021/08/14 13:23:37;;;;;;;7.70;4.17;;;28.00;99.70;;;;;;5032592;28;20488;-66
2021/08/14 13:26:04;;;;;;;8.53;4.03;;;28.00;99.10;;;;;;5033005;28;20441;-66
2021/08/14 13:28:32;;;;;;;9.67;4.13;;;28.10;98.30;;;;;;5039172;28;20942;-66
2021/08/14 13:30:59;;;;;;;9.50;4.10;;;28.20;99.70;;;;;;5052825;28;20446;-66
2021/08/14 13:33:26;;;;;;;7.67;3.90;;;28.30;98.30;;;;;;5065910;28;20445;-67
2021/08/14 13:35:52;;;;;;;6.77;3.93;;;28.30;99.60;;;;;;5072755;28;20660;-66
2021/08/14 13:38:19;;;;;;;8.53;4.40;;;28.50;98.60;;;;;;5057794;28;20449;-66
2021/08/14 13:40:46;;;;;;;8.63;4.07;;;28.40;99.20;;;;;;5053157;28;20212;-66
2021/08/14 13:43:13;;;;;;;7.27;4.20;;;28.00;99.10;;;;;;5052428;28;20227;-66
2021/08/14 13:45:41;;;;;;;7.50;4.00;;;28.10;97.30;;;;;;5052669;28;20470;-66
2021/08/14 13:48:08;;;;;;;7.27;4.00;;;27.90;99.30;;;;;;5052289;28;20454;-66
2021/08/14 13:50:35;;;;;;;8.37;4.10;;;27.90;99.70;;;;;;5052776;28;20451;-66
2021/08/14 13:53:02;;;;;;;9.47;4.93;;;27.80;99.70;;;;;;5052821;28;20497;-66
2021/08/14 13:55:28;;;;;;;6.47;3.80;;;28.00;98.40;;;;;;5045669;28;21020;-66
2021/08/14 13:57:55;;;;;;;8.30;3.97;;;28.00;98.90;;;;;;5032656;28;20448;-67
2021/08/14 14:00:22;;;;;;;8.57;4.80;;;28.00;99.50;;;;;;5031836;28;20980;-66
2021/08/14 14:02:50;;;;;;;8.50;4.30;;;28.00;98.40;;;;;;5032527;28;20479;-66
2021/08/14 14:05:17;;;;;;;7.13;4.00;;;27.90;99.70;;;;;;5046758;28;20506;-66
2021/08/14 14:07:44;;;;;;;8.23;4.00;;;27.80;98.90;;;;;;5052128;28;20454;-67
2021/08/14 14:10:12;;;;;;;8.10;4.07;;;27.80;99.70;;;;;;5052473;28;20466;-66
2021/08/14 14:12:39;;;;;;;9.00;4.80;;;27.60;99.70;;;;;;5051718;28;20479;-68
2021/08/14 14:15:06;;;;;;;8.90;4.90;;;27.80;99.70;;;;;;5051267;28;20501;-67
2021/08/14 14:17:33;;;;;;;7.10;3.70;;;27.80;99.70;;;;;;5051904;28;20462;-68
2021/08/14 14:20:02;;;;;;;7.37;3.70;;;27.90;99.20;;;;;;5052632;28;20443;-69
2021/08/14 14:22:29;;;;;;;8.80;4.27;;;27.90;99.70;;;;;;5051571;28;20483;-67
2021/08/14 14:24:58;;;;;;;10.10;4.40;;;27.80;99.70;;;;;;5051504;28;20467;-69
2021/08/14 14:27:24;;;;;;;10.00;4.23;;;27.90;99.30;;;;;;5044752;28;20455;-68
2021/08/14 14:29:51;;;;;;;8.80;4.50;;;27.80;99.70;;;;;;5031947;28;20460;-67
2021/08/14 14:32:18;;;;;;;8.47;4.03;;;27.60;99.70;;;;;;5034292;28;20448;-68
2021/08/14 14:34:44;;;;;;;8.93;4.50;;;27.60;99.70;;;;;;5051648;28;20558;-69
2021/08/14 14:37:13;;;;;;;6.80;4.13;;;27.70;99.70;;;;;;5052146;28;20463;-68
2021/08/14 14:39:40;;;;;;;8.13;3.80;;;27.90;99.70;;;;;;5052413;28;20538;-67
2021/08/14 14:42:07;;;;;;;8.03;4.50;;;27.80;99.70;;;;;;5052065;28;20435;-68
2021/08/14 14:44:34;;;;;;;7.07;4.20;;;27.80;99.70;;;;;;5051555;28;20591;-68
2021/08/14 14:47:01;;;;;;;6.90;4.00;;;27.80;99.70;;;;;;5047385;28;20444;-68
2021/08/14 14:49:28;;;;;;;9.67;4.70;;;27.70;99.70;;;;;;5032572;28;20444;-67
2021/08/14 14:51:55;;;;;;;9.80;4.50;;;27.70;99.70;;;;;;5047857;28;20827;-68
2021/08/14 14:54:23;;;;;;;9.10;4.10;;;27.60;99.70;;;;;;5051288;28;20879;-68
2021/08/14 14:56:50;;;;;;;7.60;4.40;;;27.70;99.70;;;;;;5038910;28;20440;-68
2021/08/14 14:59:16;;;;;;;9.80;4.40;;;27.70;99.70;;;;;;5031330;28;20440;-68
2021/08/14 15:01:43;;;;;;;8.00;4.50;;;27.70;99.70;;;;;;5031182;28;20452;-67
2021/08/14 15:04:10;;;;;;;6.27;3.90;;;27.90;99.70;;;;;;5030913;28;20852;-67
2021/08/14 15:06:37;;;;;;;6.50;4.07;;;27.80;99.70;;;;;;5049201;28;20447;-69
2021/08/14 15:09:03;;;;;;;11.63;4.40;;;27.90;99.70;;;;;;5038478;28;20871;-67
2021/08/14 15:11:32;;;;;;;9.40;4.40;;;27.90;99.70;;;;;;5040408;28;20451;-68
2021/08/14 15:13:58;;;;;;;9.27;4.83;;;27.80;99.70;;;;;;5036149;28;20459;-69
2021/08/14 15:16:25;;;;;;;10.70;4.80;;;27.80;99.70;;;;;;5036238;28;20471;-67
2021/08/14 15:18:52;;;;;;;8.13;4.53;;;27.70;99.70;;;;;;5050370;28;20447;-67
2021/08/14 15:21:19;;;;;;;10.60;4.60;;;27.70;99.70;;;;;;5047437;28;20768;-67
2021/08/14 15:23:47;;;;;;;8.47;4.20;;;27.60;99.70;;;;;;5046500;28;20501;-67
2021/08/14 15:26:13;;;;;;;9.23;4.30;;;27.60;99.70;;;;;;5050365;28;20478;-67
2021/08/14 15:28:41;;;;;;;9.40;4.30;;;27.80;99.70;;;;;;5047300;28;20558;-67
2021/08/14 15:31:08;;;;;;;7.67;4.10;;;27.60;99.70;;;;;;5051336;28;20450;-67
2021/08/14 15:33:35;;;;;;;9.07;4.33;;;27.50;99.70;;;;;;5050488;28;21278;-67
2021/08/14 15:36:02;;;;;;;7.20;4.30;;;27.40;99.70;;;;;;5050374;28;20447;-67
2021/08/14 15:38:29;;;;;;;10.43;4.23;;;27.20;99.70;;;;;;5050261;28;20443;-67
2021/08/14 15:40:55;;;;;;;8.17;4.40;;;27.30;99.70;;;;;;5050685;28;20458;-67
2021/08/14 15:43:22;;;;;;;10.17;4.80;;;27.30;99.70;;;;;;5043010;28;20487;-67
2021/08/14 15:45:50;;;;;;;10.73;5.23;;;27.60;99.70;;;;;;5028909;28;20468;-67
2021/08/14 15:48:19;;;;;;;8.30;4.10;;;27.40;99.70;;;;;;5029602;28;20446;-66
2021/08/14 15:50:46;;;;;;;8.00;4.47;;;27.40;99.70;;;;;;5040718;28;21011;-67
2021/08/14 15:53:13;;;;;;;19.07;7.07;;;27.20;99.70;;;;;;5040112;28;20452;-67
2021/08/14 15:55:40;;;;;;;10.87;5.40;;;27.30;99.70;;;;;;5029329;28;20468;-67
2021/08/14 15:58:06;;;;;;;7.03;3.90;;;27.60;99.70;;;;;;5034931;28;20459;-67
2021/08/14 16:00:33;;;;;;;8.97;4.57;;;27.50;99.70;;;;;;5039638;28;20467;-66
2021/08/14 16:03:01;;;;;;;8.60;4.03;;;27.30;99.70;;;;;;5048561;28;20871;-67
2021/08/14 16:05:28;;;;;;;8.87;4.30;;;27.50;99.70;;;;;;5048759;28;20985;-67
2021/08/14 16:07:55;;;;;;;10.43;4.57;;;27.50;99.70;;;;;;5026551;28;20455;-67
2021/08/14 16:10:21;;;;;;;10.20;5.10;;;27.60;99.70;;;;;;5038220;28;20454;-67
2021/08/14 16:12:48;;;;;;;7.50;4.20;;;27.50;99.70;;;;;;5046327;28;20447;-66
2021/08/14 16:15:15;;;;;;;7.87;4.10;;;27.40;99.70;;;;;;5036267;28;20466;-67
2021/08/14 16:17:42;;;;;;;11.47;4.80;;;27.50;99.70;;;;;;5038308;28;20455;-66
2021/08/14 16:20:11;;;;;;;9.90;4.90;;;27.60;99.70;;;;;;5026283;28;20890;-66